Time;durP1;ratioP1;P1;durP2;ratioP2;P2;SDS_P1;SDS_P2;PMS_P1;PMS_P2;Temp;Humidity;BMP_temperature;BMP_pressure;BME280_temperature;BME280_humidity;BME280_pressure;Samples;Min_cycle;Max_cycle;Signal;HPM_P1;HPM_P2
2022/05/16 00:01:11;;;;;;;4.37;2.50;;;25.60;60.70;;;;;;6285884;22;20142;-96
2022/05/16 00:03:36;;;;;;;3.23;1.90;;;25.50;61.10;;;;;;6284644;22;20241;-95
2022/05/16 00:06:02;;;;;;;4.70;1.87;;;25.40;61.50;;;;;;6288002;22;20139;-95
2022/05/16 00:08:28;;;;;;;5.13;2.13;;;25.30;61.60;;;;;;6287470;22;20139;-96
2022/05/16 00:10:53;;;;;;;4.10;2.10;;;25.20;62.40;;;;;;6293355;22;20162;-92
2022/05/16 00:13:20;;;;;;;4.57;1.90;;;25.20;62.70;;;;;;6300432;22;20139;-91
2022/05/16 00:15:48;;;;;;;4.47;2.03;;;25.10;63.20;;;;;;6295601;22;20138;-91
2022/05/16 00:18:14;;;;;;;5.87;2.00;;;25.00;63.80;;;;;;6290085;22;20210;-93
2022/05/16 00:20:40;;;;;;;5.57;2.50;;;25.10;63.30;;;;;;6285285;22;20143;-93
2022/05/16 00:23:07;;;;;;;3.37;1.93;;;25.00;63.60;;;;;;6288947;22;20139;-95
2022/05/16 00:25:33;;;;;;;4.57;2.10;;;25.00;64.10;;;;;;6286893;22;20158;-92
2022/05/16 00:27:58;;;;;;;4.17;2.37;;;25.10;63.40;;;;;;6289135;22;20480;-89
2022/05/16 00:30:24;;;;;;;5.93;2.07;;;25.20;63.00;;;;;;6289710;22;20137;-88
2022/05/16 00:32:50;;;;;;;5.50;2.37;;;24.80;64.40;;;;;;6290353;22;20143;-92
2022/05/16 00:35:19;;;;;;;7.83;2.50;;;24.80;64.70;;;;;;6292802;22;20166;-89
2022/05/16 00:37:45;;;;;;;3.30;2.10;;;24.60;65.30;;;;;;6293046;22;20177;-89
2022/05/16 00:40:13;;;;;;;4.47;1.97;;;24.40;65.40;;;;;;6292829;22;20131;-90
2022/05/16 00:42:39;;;;;;;4.57;1.73;;;24.30;65.70;;;;;;6289766;22;20175;-89
2022/05/16 00:45:07;;;;;;;9.20;2.30;;;24.20;66.60;;;;;;6289839;22;20140;-93
2022/05/16 00:47:32;;;;;;;7.10;2.37;;;24.20;66.70;;;;;;6288633;22;20156;-90
2022/05/16 00:50:01;;;;;;;5.70;2.73;;;24.10;66.30;;;;;;6289636;22;20146;-92
2022/05/16 00:52:36;;;;;;;6.27;2.40;;;24.30;66.10;;;;;;6289731;22;20139;-94
2022/05/16 00:55:09;;;;;;;8.30;2.40;;;24.40;66.10;;;;;;6287433;22;20142;-88
2022/05/16 00:57:42;;;;;;;3.60;2.20;;;24.90;64.20;;;;;;6289404;22;20172;-90
2022/05/16 01:00:16;;;;;;;5.13;2.33;;;25.20;63.20;;;;;;6287618;22;20156;-93
2022/05/16 01:05:38;;;;;;;6.97;2.30;;;25.20;63.20;;;;;;6285594;22;20153;-91
2022/05/16 01:08:07;;;;;;;4.57;2.00;;;25.10;63.20;;;;;;6286483;22;20133;-88
2022/05/16 01:10:34;;;;;;;7.03;2.33;;;25.00;63.40;;;;;;6287340;22;20226;-87
2022/05/16 01:13:01;;;;;;;3.27;2.40;;;25.00;63.20;;;;;;6288215;22;20137;-93
2022/05/16 01:15:45;;;;;;;3.67;2.30;;;25.10;62.90;;;;;;6284822;22;20142;-95
2022/05/16 01:18:14;;;;;;;3.77;2.00;;;25.10;63.20;;;;;;6283142;22;20190;-90
2022/05/16 01:21:01;;;;;;;4.10;2.07;;;24.90;63.60;;;;;;6286255;22;20487;-90
2022/05/16 01:23:30;;;;;;;4.53;1.93;;;24.90;63.80;;;;;;6287717;22;20152;-96
2022/05/16 01:25:55;;;;;;;4.87;2.30;;;25.10;63.30;;;;;;6260139;22;20195;-93
2022/05/16 01:28:24;;;;;;;5.13;2.37;;;25.10;62.80;;;;;;6287539;22;20142;-95
2022/05/16 01:30:51;;;;;;;7.40;2.30;;;25.10;62.90;;;;;;6284397;22;20140;-95
2022/05/16 01:33:18;;;;;;;4.63;1.97;;;25.00;63.20;;;;;;6284690;22;20149;-95
2022/05/16 01:35:44;;;;;;;4.63;2.00;;;24.90;63.40;;;;;;6284841;22;20153;-96
2022/05/16 01:38:19;;;;;;;2.83;2.07;;;24.70;63.60;;;;;;6284391;22;20179;-96
2022/05/16 01:40:47;;;;;;;6.70;2.23;;;24.50;63.90;;;;;;6284919;22;20142;-94
2022/05/16 01:43:13;;;;;;;4.43;2.10;;;24.40;64.20;;;;;;6284139;22;20146;-96
2022/05/16 01:45:42;;;;;;;3.67;2.30;;;24.50;64.20;;;;;;6284094;22;20206;-96
2022/05/16 01:48:10;;;;;;;4.17;2.20;;;24.50;64.00;;;;;;6284404;22;20154;-92
2022/05/16 01:50:40;;;;;;;3.70;2.30;;;24.40;64.10;;;;;;6284227;22;20606;-89
2022/05/16 01:53:06;;;;;;;4.27;2.43;;;24.20;64.60;;;;;;6285352;22;20176;-94
2022/05/16 01:55:32;;;;;;;3.67;2.43;;;24.10;64.80;;;;;;6285433;22;20157;-93
2022/05/16 01:57:58;;;;;;;4.57;2.23;;;24.10;64.70;;;;;;6283135;22;20206;-94
2022/05/16 02:00:24;;;;;;;3.63;2.37;;;24.00;64.80;;;;;;6281123;22;20149;-92
2022/05/16 02:02:50;;;;;;;4.70;2.30;;;23.90;65.10;;;;;;6282377;22;20147;-96
2022/05/16 02:05:19;;;;;;;4.03;2.10;;;23.90;65.30;;;;;;6280405;22;20154;-96
2022/05/16 02:07:45;;;;;;;4.97;2.30;;;23.90;65.40;;;;;;6280973;22;20143;-88
2022/05/16 02:10:13;;;;;;;3.40;2.17;;;23.90;65.40;;;;;;6280436;22;20202;-92
2022/05/16 02:12:38;;;;;;;4.27;2.00;;;23.90;65.30;;;;;;6255870;22;20214;-93
2022/05/16 02:15:08;;;;;;;3.47;2.27;;;23.80;65.50;;;;;;6283786;22;20149;-90
2022/05/16 02:17:34;;;;;;;6.37;2.00;;;23.90;65.40;;;;;;6283084;22;20187;-90
2022/05/16 02:19:59;;;;;;;3.83;2.10;;;23.80;65.90;;;;;;6284475;22;20153;-94
2022/05/16 02:25:10;;;;;;;4.33;2.40;;;23.80;66.00;;;;;;6285614;22;20211;-94
2022/05/16 02:27:36;;;;;;;5.33;2.30;;;24.00;65.60;;;;;;6284650;22;20150;-91
2022/05/16 02:30:04;;;;;;;3.87;2.07;;;24.00;65.50;;;;;;6284216;22;20138;-91
2022/05/16 02:32:30;;;;;;;3.30;2.20;;;24.10;65.30;;;;;;6283252;22;20151;-92
2022/05/16 02:34:55;;;;;;;6.63;2.47;;;24.10;65.20;;;;;;6284710;22;20185;-92
2022/05/16 02:37:21;;;;;;;3.63;1.87;;;24.10;65.40;;;;;;6284601;22;20174;-94
2022/05/16 02:39:47;;;;;;;4.80;2.20;;;23.90;65.90;;;;;;6284290;22;20143;-94
2022/05/16 02:42:14;;;;;;;4.13;1.80;;;23.90;66.50;;;;;;6284250;22;20188;-87
2022/05/16 02:44:42;;;;;;;2.53;1.70;;;24.00;66.90;;;;;;6284537;22;20153;-95
2022/05/16 02:47:12;;;;;;;4.83;1.90;;;24.10;66.90;;;;;;6277191;22;20214;-85
2022/05/16 02:49:38;;;;;;;3.77;2.00;;;24.00;66.80;;;;;;6274973;22;20488;-84
2022/05/16 02:52:04;;;;;;;3.30;2.00;;;23.80;67.10;;;;;;6276539;22;20133;-84
2022/05/16 02:54:29;;;;;;;3.63;1.90;;;23.80;67.30;;;;;;6275832;22;20576;-83
2022/05/16 02:56:55;;;;;;;3.93;2.53;;;24.00;66.50;;;;;;6274591;22;20173;-84
2022/05/16 02:59:23;;;;;;;6.03;1.87;;;24.20;66.10;;;;;;6274754;22;20601;-84
2022/05/16 03:01:48;;;;;;;5.47;2.37;;;24.40;65.40;;;;;;6274927;22;20149;-84
2022/05/16 03:04:14;;;;;;;3.90;1.93;;;24.30;65.90;;;;;;6274690;22;20147;-83
2022/05/16 03:06:41;;;;;;;3.97;2.07;;;24.20;66.40;;;;;;6276158;22;20144;-84
2022/05/16 03:09:07;;;;;;;3.67;1.90;;;24.20;66.60;;;;;;6275894;22;20437;-84
2022/05/16 03:11:33;;;;;;;4.20;2.27;;;24.20;66.30;;;;;;6274253;22;20167;-84
2022/05/16 03:13:58;;;;;;;6.03;2.30;;;24.10;67.10;;;;;;6274732;22;20228;-83
2022/05/16 03:16:24;;;;;;;5.40;2.03;;;23.90;67.40;;;;;;6274479;22;20142;-84
2022/05/16 03:18:50;;;;;;;5.53;2.00;;;23.80;69.00;;;;;;6275999;22;20196;-83
2022/05/16 03:21:15;;;;;;;2.83;2.10;;;23.80;68.90;;;;;;6274506;22;20146;-83
2022/05/16 03:23:41;;;;;;;4.90;1.93;;;23.70;69.40;;;;;;6276114;22;20138;-86
2022/05/16 03:26:06;;;;;;;4.87;2.53;;;23.70;70.20;;;;;;6274034;22;20161;-84
2022/05/16 03:28:32;;;;;;;4.53;1.83;;;23.70;69.90;;;;;;6274557;22;20138;-84
2022/05/16 03:30:59;;;;;;;5.47;2.10;;;23.60;70.30;;;;;;6276090;22;20176;-83
2022/05/16 03:33:25;;;;;;;3.13;1.83;;;23.60;70.00;;;;;;6274997;22;20563;-84
2022/05/16 03:35:55;;;;;;;4.03;1.87;;;23.60;69.90;;;;;;6276090;22;20188;-83
2022/05/16 03:41:09;;;;;;;5.03;1.93;;;23.90;69.60;;;;;;6275838;22;20200;-83
2022/05/16 03:43:37;;;;;;;3.70;2.20;;;23.90;69.10;;;;;;6274462;22;20579;-84
2022/05/16 03:46:03;;;;;;;5.03;1.90;;;23.90;68.80;;;;;;6274366;22;20142;-83
2022/05/16 03:48:29;;;;;;;6.43;2.40;;;24.00;68.10;;;;;;6274228;22;20223;-84
2022/05/16 03:50:55;;;;;;;4.27;2.03;;;23.90;68.80;;;;;;6274521;22;20539;-83
2022/05/16 03:53:20;;;;;;;5.93;2.40;;;23.80;69.60;;;;;;6274378;22;20571;-84
2022/05/16 03:55:46;;;;;;;5.20;2.30;;;23.80;68.90;;;;;;6274095;22;20147;-83
2022/05/16 03:58:12;;;;;;;4.40;2.30;;;23.80;70.00;;;;;;6274163;22;20232;-84
2022/05/16 04:00:38;;;;;;;5.97;1.97;;;23.90;69.10;;;;;;6274415;22;20149;-84
2022/05/16 04:03:03;;;;;;;3.27;1.97;;;24.10;69.00;;;;;;6274323;22;20652;-84
2022/05/16 04:05:29;;;;;;;4.23;2.50;;;24.20;68.60;;;;;;6275656;22;20210;-84
2022/05/16 04:07:55;;;;;;;3.53;1.50;;;24.20;69.10;;;;;;6274269;22;20151;-83
2022/05/16 04:10:21;;;;;;;5.20;2.13;;;24.10;69.10;;;;;;6274085;22;20571;-83
2022/05/16 04:12:47;;;;;;;5.23;2.37;;;24.20;68.50;;;;;;6275848;22;20320;-84
2022/05/16 04:15:13;;;;;;;4.07;2.37;;;24.10;68.50;;;;;;6274272;22;20276;-84
2022/05/16 04:17:39;;;;;;;8.53;2.07;;;24.00;68.40;;;;;;6273941;22;20197;-85
2022/05/16 04:20:06;;;;;;;5.07;2.10;;;23.80;69.30;;;;;;6274423;22;20564;-84
2022/05/16 04:22:33;;;;;;;3.33;1.93;;;23.90;68.90;;;;;;6275893;22;20142;-84
2022/05/16 04:24:58;;;;;;;5.13;2.37;;;23.80;69.10;;;;;;6273899;22;20150;-83
2022/05/16 04:27:24;;;;;;;2.97;1.80;;;23.60;69.50;;;;;;6274226;22;20258;-86
2022/05/16 04:29:50;;;;;;;5.23;2.33;;;23.60;69.90;;;;;;6274524;22;20272;-84
2022/05/16 04:32:15;;;;;;;3.50;2.23;;;23.40;70.30;;;;;;6275894;22;20139;-83
2022/05/16 04:34:42;;;;;;;4.27;2.20;;;23.40;70.70;;;;;;6274328;22;20135;-85
2022/05/16 04:37:07;;;;;;;9.33;2.27;;;23.30;71.00;;;;;;6275973;22;20186;-84
2022/05/16 04:39:33;;;;;;;3.33;2.37;;;23.30;71.20;;;;;;6274486;22;20212;-84
2022/05/16 04:44:43;;;;;;;4.23;2.70;;;23.60;70.40;;;;;;6280238;22;20150;-84
2022/05/16 04:47:09;;;;;;;7.23;2.33;;;23.60;70.70;;;;;;6289819;22;20138;-90
2022/05/16 04:49:36;;;;;;;5.13;2.90;;;23.50;70.60;;;;;;6282035;22;20135;-90
2022/05/16 04:52:03;;;;;;;4.13;2.40;;;23.60;70.40;;;;;;6281565;22;20141;-93
2022/05/16 04:54:29;;;;;;;3.47;1.87;;;23.70;70.60;;;;;;6279039;22;20162;-93
2022/05/16 04:56:55;;;;;;;10.50;2.77;;;23.60;70.70;;;;;;6282369;22;20170;-94
2022/05/16 04:59:21;;;;;;;5.80;2.90;;;23.60;70.90;;;;;;6281285;22;20150;-93
2022/05/16 05:01:47;;;;;;;4.40;2.60;;;23.50;71.30;;;;;;6282182;22;20143;-94
2022/05/16 05:04:13;;;;;;;8.33;3.07;;;23.50;71.30;;;;;;6283515;22;20143;-94
2022/05/16 05:06:39;;;;;;;4.23;2.70;;;23.50;71.20;;;;;;6258501;22;20143;-92
2022/05/16 05:09:05;;;;;;;9.73;3.10;;;23.50;71.60;;;;;;6290730;22;20142;-93
2022/05/16 05:14:32;;;;;;;6.60;2.53;;;23.50;71.70;;;;;;6284563;22;20212;-91
2022/05/16 05:17:10;;;;;;;9.10;3.03;;;23.40;72.30;;;;;;6279144;22;20552;-94
2022/05/16 05:19:40;;;;;;;5.90;2.80;;;23.60;71.70;;;;;;6277234;22;20147;-93
2022/05/16 05:22:06;;;;;;;11.20;3.30;;;23.60;71.80;;;;;;6278081;22;20143;-93
2022/05/16 05:24:32;;;;;;;11.87;2.70;;;23.80;71.60;;;;;;6278775;22;20617;-92
2022/05/16 05:26:59;;;;;;;9.43;2.83;;;23.60;72.20;;;;;;6277292;22;20170;-95
2022/05/16 05:29:25;;;;;;;6.83;2.53;;;23.80;72.20;;;;;;6279384;22;20548;-91
2022/05/16 05:31:51;;;;;;;6.13;2.83;;;23.80;72.00;;;;;;6278418;22;20150;-92
2022/05/16 05:34:18;;;;;;;7.00;2.70;;;23.80;71.90;;;;;;6287042;22;20147;-92
2022/05/16 05:36:44;;;;;;;5.60;2.20;;;24.00;71.60;;;;;;6290693;22;20148;-92
2022/05/16 05:39:16;;;;;;;8.97;2.63;;;24.00;71.80;;;;;;6277517;22;20199;-92
2022/05/16 05:41:41;;;;;;;5.17;2.23;;;24.40;70.70;;;;;;6277039;22;20151;-94
2022/05/16 05:44:07;;;;;;;6.50;2.57;;;24.30;70.80;;;;;;6277341;22;20161;-91
2022/05/16 05:46:38;;;;;;;7.03;2.20;;;24.50;70.50;;;;;;6276956;22;20148;-92
2022/05/16 05:49:04;;;;;;;4.63;2.47;;;24.60;70.60;;;;;;6277229;22;20147;-93
2022/05/16 05:51:30;;;;;;;6.43;2.90;;;24.30;71.30;;;;;;6276083;22;20157;-92
2022/05/16 05:53:56;;;;;;;6.50;2.27;;;24.10;71.90;;;;;;6277575;22;20138;-94
2022/05/16 05:56:21;;;;;;;5.83;2.60;;;24.10;72.30;;;;;;6276815;22;20189;-92
2022/05/16 05:58:47;;;;;;;5.93;2.30;;;23.90;72.80;;;;;;6275726;22;20513;-92
2022/05/16 06:01:12;;;;;;;5.67;2.13;;;23.90;72.90;;;;;;6276794;22;20131;-85
2022/05/16 06:03:38;;;;;;;5.87;2.40;;;23.90;73.00;;;;;;6275302;22;20209;-85
2022/05/16 06:06:04;;;;;;;5.03;2.80;;;23.80;73.40;;;;;;6274796;22;20143;-84
2022/05/16 06:08:29;;;;;;;5.20;2.03;;;23.70;73.90;;;;;;6275336;22;20144;-85
2022/05/16 06:10:55;;;;;;;5.13;2.20;;;23.60;74.50;;;;;;6275026;22;20154;-82
2022/05/16 06:13:21;;;;;;;7.37;2.47;;;23.60;75.00;;;;;;6274588;22;20237;-84
2022/05/16 06:15:47;;;;;;;5.47;2.47;;;23.60;74.80;;;;;;6275114;22;20576;-84
2022/05/16 06:18:12;;;;;;;6.00;2.13;;;23.70;74.90;;;;;;6274801;22;20500;-85
2022/05/16 06:20:39;;;;;;;3.33;2.27;;;23.70;75.00;;;;;;6274441;22;20143;-84
2022/05/16 06:23:05;;;;;;;2.77;1.97;;;23.70;75.20;;;;;;6275153;22;20158;-84
2022/05/16 06:25:31;;;;;;;7.73;2.10;;;23.80;74.90;;;;;;6276455;22;20274;-84
2022/05/16 06:28:07;;;;;;;2.67;2.23;;;23.90;74.80;;;;;;6276768;22;20147;-84
2022/05/16 06:30:35;;;;;;;2.80;2.00;;;24.00;74.90;;;;;;6274931;22;20476;-84
2022/05/16 06:33:00;;;;;;;5.13;2.20;;;24.00;74.80;;;;;;6275110;22;20153;-86
2022/05/16 06:35:26;;;;;;;3.87;1.83;;;24.00;74.90;;;;;;6274488;22;20143;-84
2022/05/16 06:37:52;;;;;;;4.23;1.73;;;24.10;74.90;;;;;;6276555;22;20166;-84
2022/05/16 06:40:19;;;;;;;3.77;1.80;;;23.90;75.50;;;;;;6276345;22;20132;-84
2022/05/16 08:55:01;;;;;;;6.17;3.90;;;24.20;92.10;;;;;;6276296;22;20206;-89
2022/05/16 08:57:45;;;;;;;8.10;3.77;;;24.20;92.20;;;;;;6277101;22;20170;-89
2022/05/16 09:00:28;;;;;;;6.63;4.53;;;24.20;92.40;;;;;;6276927;22;20228;-89
2022/05/16 09:02:55;;;;;;;9.87;4.53;;;23.90;92.90;;;;;;6277197;22;20138;-89
2022/05/16 09:05:36;;;;;;;8.67;4.40;;;23.60;94.00;;;;;;6277157;22;20453;-89
2022/05/16 09:08:05;;;;;;;8.83;4.07;;;23.70;94.50;;;;;;6277403;22;20157;-89
2022/05/16 09:10:38;;;;;;;7.10;4.10;;;23.90;93.90;;;;;;6276850;22;20143;-89
2022/05/16 09:13:34;;;;;;;10.93;5.00;;;24.00;93.70;;;;;;6277376;22;20228;-89
2022/05/16 09:16:31;;;;;;;9.10;4.30;;;24.00;94.20;;;;;;6276048;22;20161;-89
2022/05/16 09:19:15;;;;;;;7.17;4.50;;;24.20;94.00;;;;;;6276846;22;20261;-89
2022/05/16 09:21:51;;;;;;;9.10;4.23;;;24.00;93.80;;;;;;6277242;22;20193;-89
2022/05/16 09:24:29;;;;;;;10.07;4.70;;;24.00;94.00;;;;;;6277369;22;20184;-89
2022/05/16 09:27:13;;;;;;;8.97;4.97;;;23.80;94.20;;;;;;6277805;22;20175;-89
2022/05/16 09:29:45;;;;;;;8.40;4.83;;;23.90;94.60;;;;;;6278189;22;20139;-89
2022/05/16 09:32:35;;;;;;;11.57;4.40;;;23.60;95.00;;;;;;6280557;22;20607;-88
2022/05/16 09:35:00;;;;;;;9.37;5.77;;;23.60;95.70;;;;;;6285020;22;20617;-89
2022/05/16 09:37:26;;;;;;;7.53;5.07;;;23.40;96.60;;;;;;6284199;22;20180;-88
2022/05/16 09:39:53;;;;;;;10.37;4.67;;;23.50;96.70;;;;;;6281204;22;20225;-89
2022/05/16 09:42:33;;;;;;;11.83;5.27;;;23.30;97.20;;;;;;6277117;22;20532;-89
2022/05/16 09:45:03;;;;;;;12.20;6.13;;;23.60;98.00;;;;;;6276334;22;20134;-88
2022/05/16 09:47:29;;;;;;;16.20;6.37;;;23.60;98.00;;;;;;6276655;22;20153;-88
2022/05/16 09:50:10;;;;;;;13.67;6.70;;;23.30;99.60;;;;;;6276834;22;20584;-89
2022/05/16 09:52:45;;;;;;;11.40;5.87;;;23.30;99.70;;;;;;6276377;22;20485;-89
2022/05/16 09:55:23;;;;;;;10.03;6.50;;;23.20;99.90;;;;;;6276256;22;20169;-89
2022/05/16 09:57:59;;;;;;;15.57;6.70;;;23.20;99.90;;;;;;6276605;22;20295;-88
2022/05/16 10:00:44;;;;;;;10.13;7.10;;;23.20;99.90;;;;;;6276418;22;20642;-88
2022/05/16 10:03:14;;;;;;;10.60;7.83;;;23.00;99.90;;;;;;6276875;22;20145;-88
2022/05/16 10:05:51;;;;;;;12.70;8.03;;;22.40;99.90;;;;;;6276358;22;20165;-89
2022/05/16 10:08:46;;;;;;;12.67;8.43;;;22.10;99.90;;;;;;6276454;22;20142;-89
2022/05/16 10:11:24;;;;;;;14.30;7.97;;;21.80;99.90;;;;;;6273657;22;20185;-89
2022/05/16 10:13:50;;;;;;;12.73;8.73;;;21.90;99.90;;;;;;6276353;22;20145;-89
2022/05/16 10:16:18;;;;;;;14.13;9.60;;;22.10;99.90;;;;;;6276654;22;20203;-89
2022/05/16 10:18:49;;;;;;;13.60;9.20;;;22.20;99.90;;;;;;6276256;22;20252;-89
2022/05/16 10:21:27;;;;;;;11.93;9.97;;;22.30;99.90;;;;;;6276385;22;20196;-88
2022/05/16 10:23:55;;;;;;;16.33;9.53;;;22.10;99.90;;;;;;6276359;22;20484;-88
2022/05/16 10:26:23;;;;;;;11.77;9.57;;;21.80;99.90;;;;;;6275912;22;20149;-88
2022/05/16 10:28:57;;;;;;;12.10;9.23;;;22.00;99.90;;;;;;6276338;22;20142;-88
2022/05/16 10:34:17;;;;;;;13.00;8.07;;;22.40;99.90;;;;;;6278261;22;20470;-89
2022/05/16 10:36:48;;;;;;;9.20;6.83;;;22.70;99.90;;;;;;6276220;22;20150;-89
2022/05/16 10:39:18;;;;;;;10.73;6.70;;;22.80;99.90;;;;;;6276227;22;20165;-88
2022/05/16 10:41:43;;;;;;;11.80;6.53;;;22.90;99.90;;;;;;6275916;22;20646;-88
2022/05/16 10:44:47;;;;;;;12.07;6.13;;;23.10;99.90;;;;;;6276519;22;20174;-89
2022/05/16 10:47:21;;;;;;;9.83;6.83;;;23.30;99.90;;;;;;6259876;22;20162;-89
2022/05/16 10:50:11;;;;;;;12.87;6.50;;;23.20;99.90;;;;;;6276751;22;20150;-90
2022/05/16 10:52:49;;;;;;;10.80;6.13;;;23.40;99.90;;;;;;6277026;22;20157;-88
2022/05/16 10:55:14;;;;;;;8.70;5.50;;;23.70;99.90;;;;;;6276155;22;20679;-88
2022/05/16 10:57:43;;;;;;;11.07;5.23;;;24.10;99.50;;;;;;6275786;22;20213;-88
2022/05/16 11:00:11;;;;;;;7.10;4.77;;;24.40;98.50;;;;;;6276338;22;20180;-89
2022/05/16 11:02:55;;;;;;;7.77;4.97;;;24.60;97.90;;;;;;6275968;22;20178;-89
2022/05/16 11:05:42;;;;;;;6.77;4.50;;;24.60;97.20;;;;;;6276266;22;20176;-89
2022/05/16 11:08:16;;;;;;;8.37;4.60;;;24.20;96.90;;;;;;6276430;22;20193;-88
2022/05/16 11:11:21;;;;;;;7.30;4.43;;;24.20;96.70;;;;;;6276095;22;20669;-89
2022/05/16 11:14:25;;;;;;;6.13;3.80;;;24.20;96.00;;;;;;6276049;22;20157;-89
2022/05/16 11:16:58;;;;;;;6.70;4.00;;;24.60;95.30;;;;;;6275809;22;20147;-90
2022/05/16 11:19:35;;;;;;;4.33;2.80;;;24.60;93.90;;;;;;6275917;22;20571;-89
2022/05/16 11:22:13;;;;;;;7.53;3.83;;;24.40;94.10;;;;;;6275900;22;20586;-89
2022/05/16 11:24:57;;;;;;;9.27;3.13;;;24.50;94.00;;;;;;6275220;22;20195;-89
2022/05/16 11:27:49;;;;;;;6.90;3.33;;;24.60;92.90;;;;;;6275854;22;20166;-89
2022/05/16 11:30:17;;;;;;;13.87;4.00;;;25.00;92.20;;;;;;6275805;22;20238;-89
2022/05/16 11:33:09;;;;;;;10.57;2.93;;;25.50;91.70;;;;;;6275729;22;20147;-88
2022/05/16 11:35:48;;;;;;;7.40;3.00;;;25.70;90.80;;;;;;6275374;22;20582;-89
2022/05/16 11:39:00;;;;;;;7.60;2.60;;;26.30;90.20;;;;;;6275172;22;20177;-89
2022/05/16 11:41:34;;;;;;;6.47;2.60;;;26.70;87.40;;;;;;6275880;22;20143;-89
2022/05/16 11:44:28;;;;;;;5.07;2.70;;;26.70;87.20;;;;;;6275884;22;20530;-89
2022/05/16 11:47:06;;;;;;;6.50;3.17;;;26.40;86.40;;;;;;6275400;22;20161;-89
2022/05/16 11:49:40;;;;;;;6.70;2.97;;;25.70;87.90;;;;;;6275585;22;20198;-87
2022/05/16 11:52:31;;;;;;;16.63;3.57;;;25.40;88.70;;;;;;6278880;22;20148;-89
2022/05/16 11:55:04;;;;;;;6.57;3.40;;;25.10;89.70;;;;;;6254371;22;20185;-89
2022/05/16 12:03:06;;;;;;;11.37;3.87;;;24.80;91.00;;;;;;6280549;22;20203;-88
2022/05/16 12:05:40;;;;;;;10.87;3.30;;;25.10;90.70;;;;;;6279118;22;20234;-89
2022/05/16 12:08:12;;;;;;;8.60;2.93;;;25.70;90.00;;;;;;6278384;22;20154;-89
2022/05/16 12:11:14;;;;;;;7.90;2.93;;;25.80;89.00;;;;;;6279537;22;20583;-89
2022/05/16 12:14:01;;;;;;;10.13;3.40;;;26.00;88.00;;;;;;6278845;22;20141;-89
2022/05/16 12:16:36;;;;;;;8.57;2.93;;;25.90;88.30;;;;;;6279206;22;20190;-89
2022/05/16 12:19:29;;;;;;;9.00;3.13;;;25.90;87.50;;;;;;6278708;22;20215;-89
2022/05/16 12:22:11;;;;;;;10.80;4.00;;;25.90;88.10;;;;;;6274627;22;20150;-89
2022/05/16 12:24:52;;;;;;;12.00;3.80;;;25.80;88.30;;;;;;6278573;22;20204;-89
2022/05/16 12:27:44;;;;;;;8.83;3.17;;;26.10;88.00;;;;;;6278797;22;20189;-89
2022/05/16 12:30:33;;;;;;;11.67;3.13;;;26.40;87.20;;;;;;6279553;22;20145;-89
2022/05/16 12:33:00;;;;;;;14.20;2.83;;;26.20;86.90;;;;;;6278901;22;20153;-89
2022/05/16 12:35:43;;;;;;;5.60;2.53;;;25.40;87.60;;;;;;6279183;22;20150;-88
2022/05/16 12:38:13;;;;;;;8.60;2.90;;;25.00;89.20;;;;;;6278528;22;20642;-89
2022/05/16 12:41:38;;;;;;;6.47;2.43;;;24.40;90.40;;;;;;6278899;22;20204;-88
2022/05/16 12:44:17;;;;;;;6.50;2.53;;;24.20;90.40;;;;;;6161987;23;20152;-89
2022/05/16 12:47:15;;;;;;;10.80;2.50;;;24.30;90.50;;;;;;6161984;23;20155;-88
2022/05/16 12:49:59;;;;;;;5.77;2.30;;;24.80;88.40;;;;;;6253818;22;20177;-89
2022/05/16 12:52:50;;;;;;;4.03;1.97;;;25.50;87.10;;;;;;6278364;22;20236;-89
2022/05/16 12:55:34;;;;;;;4.17;1.93;;;26.20;84.30;;;;;;6278497;22;20252;-89
2022/05/16 12:58:25;;;;;;;6.77;2.13;;;27.20;82.50;;;;;;6278827;22;20683;-89
2022/05/16 13:00:58;;;;;;;5.23;1.73;;;28.30;80.10;;;;;;6278782;22;20200;-89
2022/05/16 13:03:45;;;;;;;7.10;2.03;;;29.20;77.30;;;;;;6277228;22;20538;-89
2022/05/16 13:06:31;;;;;;;7.27;2.07;;;29.50;75.20;;;;;;6277301;22;20157;-89
2022/05/16 13:09:09;;;;;;;5.13;1.90;;;29.60;74.00;;;;;;6276911;22;20206;-88
2022/05/16 13:11:46;;;;;;;8.43;2.17;;;28.90;75.70;;;;;;6277220;22;20518;-88
2022/05/16 13:14:36;;;;;;;9.27;2.00;;;28.30;77.00;;;;;;6277095;22;20143;-88
2022/05/16 13:17:35;;;;;;;7.87;2.57;;;27.80;78.10;;;;;;6277206;22;20170;-87
2022/05/16 13:20:16;;;;;;;7.23;2.37;;;27.70;78.30;;;;;;6255734;22;20154;-88
2022/05/16 13:22:43;;;;;;;7.93;2.23;;;27.80;78.90;;;;;;6277345;22;20480;-89
2022/05/16 13:25:11;;;;;;;6.63;2.60;;;28.60;77.80;;;;;;6276959;22;20150;-89
2022/05/16 13:30:23;;;;;;;4.80;1.50;;;28.70;75.90;;;;;;6278606;22;20527;-88
2022/05/16 13:32:49;;;;;;;8.43;1.90;;;28.20;76.10;;;;;;6277916;22;20142;-88
2022/05/16 13:35:35;;;;;;;5.37;1.90;;;27.80;77.20;;;;;;6277733;22;20169;-88
2022/05/16 13:38:00;;;;;;;6.87;1.73;;;27.70;77.40;;;;;;6277611;22;20186;-88
2022/05/16 13:40:38;;;;;;;4.23;1.37;;;27.80;77.20;;;;;;6276861;22;20200;-88
2022/05/16 13:43:26;;;;;;;10.43;1.97;;;27.80;76.40;;;;;;6277238;22;20157;-88
2022/05/16 13:46:08;;;;;;;3.47;1.73;;;27.60;76.90;;;;;;6278062;22;20146;-88
2022/05/16 13:48:34;;;;;;;4.07;1.57;;;26.70;79.20;;;;;;6277285;22;20150;-88
2022/05/16 13:51:01;;;;;;;5.27;1.53;;;26.80;78.30;;;;;;6276480;22;20162;-88
2022/05/16 13:53:29;;;;;;;5.50;1.77;;;27.00;77.50;;;;;;6276439;22;20146;-88
2022/05/16 13:55:56;;;;;;;5.10;1.40;;;26.90;78.20;;;;;;6276484;22;20154;-88
2022/05/16 13:58:25;;;;;;;3.80;1.37;;;27.00;78.40;;;;;;6276484;22;20263;-88
2022/05/16 14:01:29;;;;;;;3.70;1.50;;;27.30;77.30;;;;;;6276293;22;20196;-88
2022/05/16 14:03:59;;;;;;;3.87;1.50;;;27.50;76.60;;;;;;6275605;22;20154;-88
2022/05/16 14:06:38;;;;;;;4.43;1.83;;;27.40;76.10;;;;;;6276358;22;20285;-88
2022/05/16 14:09:14;;;;;;;6.30;1.70;;;27.30;75.70;;;;;;6276958;22;20158;-88
2022/05/16 14:11:41;;;;;;;4.73;1.63;;;27.40;76.00;;;;;;6276497;22;20199;-88
2022/05/16 14:14:09;;;;;;;4.03;1.40;;;26.80;76.80;;;;;;6275748;22;20184;-88
2022/05/16 14:16:39;;;;;;;6.03;1.57;;;27.20;76.60;;;;;;6276343;22;20154;-88
2022/05/16 14:19:12;;;;;;;5.97;1.50;;;27.20;77.00;;;;;;6275980;22;20182;-88
2022/05/16 14:22:07;;;;;;;4.50;1.77;;;26.90;76.20;;;;;;6276444;22;20177;-88
2022/05/16 14:24:49;;;;;;;9.37;1.67;;;26.70;77.20;;;;;;6276549;22;20212;-88
2022/05/16 14:27:42;;;;;;;5.63;1.63;;;26.80;77.40;;;;;;6276213;22;20154;-88
2022/05/16 14:30:24;;;;;;;5.67;1.67;;;27.00;77.30;;;;;;6275223;22;20177;-87
2022/05/16 14:33:06;;;;;;;5.60;1.97;;;26.20;78.60;;;;;;6276019;22;20177;-87
2022/05/16 14:35:32;;;;;;;5.20;1.80;;;26.20;78.90;;;;;;6276214;22;20157;-87
2022/05/16 14:38:04;;;;;;;5.53;1.90;;;26.40;79.00;;;;;;6275920;22;20182;-87
2022/05/16 14:40:47;;;;;;;4.10;1.70;;;27.30;77.40;;;;;;6275960;22;20161;-89
2022/05/16 14:43:32;;;;;;;6.23;2.00;;;28.00;76.20;;;;;;6276550;22;20154;-90
2022/05/16 14:48:51;;;;;;;4.70;1.30;;;28.80;73.80;;;;;;6277221;22;20150;-87
2022/05/16 14:51:22;;;;;;;6.53;1.63;;;29.10;73.40;;;;;;6276510;22;20143;-90
2022/05/16 14:53:48;;;;;;;5.33;1.33;;;29.10;73.60;;;;;;6275702;22;20496;-87
2022/05/16 14:56:14;;;;;;;6.83;2.00;;;29.50;73.00;;;;;;6276468;22;20498;-90
2022/05/16 14:58:39;;;;;;;4.97;1.80;;;29.70;71.90;;;;;;6276179;22;20213;-90
2022/05/16 15:04:04;;;;;;;4.23;1.43;;;29.60;71.30;;;;;;6277130;22;20149;-90
2022/05/16 15:06:40;;;;;;;3.33;1.47;;;29.10;72.30;;;;;;6276053;22;20146;-88
2022/05/16 15:09:10;;;;;;;6.33;1.60;;;29.40;72.50;;;;;;6276022;22;20150;-88
2022/05/16 15:11:52;;;;;;;5.27;1.60;;;30.40;70.30;;;;;;6276197;22;20158;-88
2022/05/16 15:14:20;;;;;;;5.93;1.37;;;30.50;69.20;;;;;;6276440;22;20155;-88
2022/05/16 15:16:47;;;;;;;4.33;1.20;;;30.80;69.00;;;;;;6275562;22;20154;-89
2022/05/16 15:19:14;;;;;;;4.73;1.50;;;30.90;68.10;;;;;;6275923;22;20175;-88
2022/05/16 15:21:42;;;;;;;4.57;1.57;;;31.20;67.00;;;;;;6275977;22;20150;-88
2022/05/16 15:24:12;;;;;;;5.15;1.30;;;31.60;67.20;;;;;;6275716;22;20583;-88
2022/05/16 15:26:38;;;;;;;5.90;1.20;;;32.10;65.00;;;;;;6275692;22;20150;-89
2022/05/16 15:29:03;;;;;;;5.18;1.25;;;32.20;64.10;;;;;;6276263;22;20535;-88
2022/05/16 15:31:31;;;;;;;3.28;1.23;;;32.00;63.60;;;;;;6275690;22;20150;-88
2022/05/16 15:33:56;;;;;;;3.13;1.00;;;31.80;63.70;;;;;;6275984;22;20149;-88
2022/05/16 15:36:22;;;;;;;3.55;1.45;;;32.10;62.80;;;;;;6276094;22;20154;-88
2022/05/16 15:38:48;;;;;;;2.80;1.00;;;31.80;62.90;;;;;;6275898;22;20504;-89
2022/05/16 15:41:15;;;;;;;2.87;1.20;;;31.60;63.40;;;;;;6276584;22;20149;-89
2022/05/16 15:43:41;;;;;;;5.20;1.57;;;31.20;63.30;;;;;;6276579;22;20142;-88
2022/05/16 15:46:09;;;;;;;4.80;1.30;;;30.80;63.80;;;;;;6277377;22;20204;-89
2022/05/16 15:48:38;;;;;;;4.77;1.93;;;30.40;65.10;;;;;;6278219;22;20532;-90
2022/05/16 15:51:03;;;;;;;3.90;1.00;;;30.40;65.20;;;;;;6277024;22;20185;-90
2022/05/16 15:53:30;;;;;;;4.77;1.27;;;30.40;65.00;;;;;;6277284;22;20158;-89